Time;durP1;ratioP1;P1;durP2;ratioP2;P2;SDS_P1;SDS_P2;PMS_P1;PMS_P2;Temp;Humidity;BMP_temperature;BMP_pressure;BME280_temperature;BME280_humidity;BME280_pressure;Samples;Min_cycle;Max_cycle;Signal;HPM_P1;HPM_P2
2023/09/27 00:00:55;;;;;;;;;10.00;10.00;;;;;;;;5095093;27;45448;-48
2023/09/27 00:03:20;;;;;;;;;13.33;13.33;;;;;;;;5081380;27;45301;-47
2023/09/27 00:05:46;;;;;;;;;12.00;12.00;;;;;;;;5076355;28;45698;-49
2023/09/27 00:08:11;;;;;;;;;18.00;12.67;;;;;;;;5077233;27;46791;-49
2023/09/27 00:10:36;;;;;;;;;14.00;12.00;;;;;;;;5078594;28;45511;-50
2023/09/27 00:13:02;;;;;;;;;9.33;8.33;;;;;;;;5076372;28;45480;-49
2023/09/27 00:15:27;;;;;;;;;12.00;11.00;;;;;;;;5076502;27;45535;-50
2023/09/27 00:17:54;;;;;;;;;13.00;12.00;;;;;;;;5072142;28;46474;-47
2023/09/27 00:20:20;;;;;;;;;14.67;13.00;;;;;;;;5075382;27;45430;-49
2023/09/27 00:22:45;;;;;;;;;10.33;10.33;;;;;;;;5074737;27;45299;-50
2023/09/27 00:25:11;;;;;;;;;9.33;8.00;;;;;;;;5074826;28;45566;-46
2023/09/27 00:27:39;;;;;;;;;9.00;8.33;;;;;;;;5075684;27;46703;-50
2023/09/27 00:30:07;;;;;;;;;9.00;9.00;;;;;;;;5077428;28;45290;-50
2023/09/27 00:32:32;;;;;;;;;11.33;10.00;;;;;;;;5075939;28;45399;-50
2023/09/27 00:34:57;;;;;;;;;10.00;10.00;;;;;;;;5076710;28;45480;-47
2023/09/27 00:37:24;;;;;;;;;8.67;8.67;;;;;;;;5073934;28;46084;-49
2023/09/27 00:39:49;;;;;;;;;11.00;9.67;;;;;;;;5076782;27;45444;-52
2023/09/27 00:42:14;;;;;;;;;11.00;8.00;;;;;;;;5077443;28;45446;-55
2023/09/27 00:44:39;;;;;;;;;11.33;10.00;;;;;;;;5081544;27;45464;-51
2023/09/27 00:47:06;;;;;;;;;14.00;12.33;;;;;;;;5080305;28;45856;-51
2023/09/27 00:49:31;;;;;;;;;12.33;12.00;;;;;;;;5083343;27;45607;-51
2023/09/27 00:51:57;;;;;;;;;10.00;10.00;;;;;;;;5082723;27;45437;-51
2023/09/27 00:54:22;;;;;;;;;13.00;11.67;;;;;;;;5079285;27;45217;-48
2023/09/27 00:56:47;;;;;;;;;14.33;12.33;;;;;;;;5077333;27;45542;-50
2023/09/27 00:59:14;;;;;;;;;14.00;10.00;;;;;;;;5080749;27;45462;-50
2023/09/27 01:01:40;;;;;;;;;12.33;10.33;;;;;;;;5073934;28;45409;-49
2023/09/27 01:04:05;;;;;;;;;16.33;13.67;;;;;;;;5083360;27;45520;-48
2023/09/27 01:06:31;;;;;;;;;16.67;13.00;;;;;;;;5082774;27;45627;-50
2023/09/27 01:08:56;;;;;;;;;10.00;10.00;;;;;;;;5077675;27;46965;-47
2023/09/27 01:11:21;;;;;;;;;13.67;10.33;;;;;;;;5082312;27;45283;-49
2023/09/27 01:13:46;;;;;;;;;13.67;13.67;;;;;;;;5077160;27;45436;-47
2023/09/27 01:16:12;;;;;;;;;14.33;12.67;;;;;;;;5076650;27;45427;-52
2023/09/27 01:18:37;;;;;;;;;13.00;12.00;;;;;;;;5074408;27;45458;-51
2023/09/27 01:21:02;;;;;;;;;10.67;9.33;;;;;;;;5081449;27;45410;-51
2023/09/27 01:23:27;;;;;;;;;12.67;12.33;;;;;;;;5078450;27;45354;-55
2023/09/27 01:25:57;;;;;;;;;11.33;10.00;;;;;;;;5074937;27;46250;-50
2023/09/27 01:28:22;;;;;;;;;11.33;11.33;;;;;;;;5079120;27;45287;-51
2023/09/27 01:30:48;;;;;;;;;14.00;10.67;;;;;;;;5075993;27;45420;-49
2023/09/27 01:33:13;;;;;;;;;11.67;11.00;;;;;;;;5072816;27;45674;-50
2023/09/27 01:35:42;;;;;;;;;11.00;11.00;;;;;;;;5078885;27;46033;-50
2023/09/27 01:38:08;;;;;;;;;13.67;11.00;;;;;;;;5082610;27;45300;-48
2023/09/27 01:40:44;;;;;;;;;15.00;11.00;;;;;;;;5084881;27;45374;-48
2023/09/27 01:43:09;;;;;;;;;13.00;10.00;;;;;;;;5082982;27;45516;-48
2023/09/27 01:45:35;;;;;;;;;12.00;11.00;;;;;;;;5079534;27;45545;-47
2023/09/27 01:48:01;;;;;;;;;13.33;11.00;;;;;;;;5080989;27;45664;-51
2023/09/27 01:50:26;;;;;;;;;12.67;12.00;;;;;;;;5079281;27;45328;-51
2023/09/27 01:52:52;;;;;;;;;9.33;9.33;;;;;;;;5087275;27;45645;-50
2023/09/27 01:55:17;;;;;;;;;9.33;9.33;;;;;;;;5077347;27;45315;-48
2023/09/27 01:57:45;;;;;;;;;13.00;10.33;;;;;;;;5077133;27;45445;-49
2023/09/27 02:00:11;;;;;;;;;10.33;10.33;;;;;;;;5079681;27;45379;-51
2023/09/27 02:02:36;;;;;;;;;10.00;10.00;;;;;;;;5078743;27;45651;-48
2023/09/27 02:05:02;;;;;;;;;12.00;10.33;;;;;;;;5080078;27;46080;-46
2023/09/27 02:07:27;;;;;;;;;12.33;11.33;;;;;;;;5083369;27;45794;-50
2023/09/27 02:09:52;;;;;;;;;12.33;10.00;;;;;;;;5080769;27;45478;-56
2023/09/27 02:12:18;;;;;;;;;13.33;12.00;;;;;;;;5091174;27;45394;-50
2023/09/27 02:14:43;;;;;;;;;13.00;12.00;;;;;;;;5087736;27;47452;-52
2023/09/27 02:17:08;;;;;;;;;12.00;9.00;;;;;;;;5094807;27;45420;-49
2023/09/27 02:19:34;;;;;;;;;13.00;13.00;;;;;;;;5080245;27;45311;-50
2023/09/27 02:21:59;;;;;;;;;16.00;11.33;;;;;;;;5074134;27;45458;-50
2023/09/27 02:24:25;;;;;;;;;12.33;10.67;;;;;;;;5075383;27;46032;-49
2023/09/27 02:26:50;;;;;;;;;11.33;11.33;;;;;;;;5082034;27;45215;-49
2023/09/27 02:29:16;;;;;;;;;11.67;8.33;;;;;;;;5077410;27;45338;-50
2023/09/27 02:31:41;;;;;;;;;10.00;10.00;;;;;;;;5085145;27;45472;-51
2023/09/27 02:34:07;;;;;;;;;8.00;8.00;;;;;;;;5083739;27;46018;-49
2023/09/27 02:36:33;;;;;;;;;12.00;12.00;;;;;;;;5073921;27;45283;-49
2023/09/27 02:38:58;;;;;;;;;11.00;8.33;;;;;;;;5083300;27;45390;-51
2023/09/27 02:41:23;;;;;;;;;10.00;9.00;;;;;;;;5080395;27;45514;-49
2023/09/27 02:43:48;;;;;;;;;10.00;10.00;;;;;;;;5084525;27;46564;-50
2023/09/27 02:46:14;;;;;;;;;12.00;10.67;;;;;;;;5091188;27;45362;-52
2023/09/27 02:48:39;;;;;;;;;13.00;12.00;;;;;;;;5079166;28;45416;-51
2023/09/27 02:51:05;;;;;;;;;13.33;11.33;;;;;;;;5084737;27;45362;-48
2023/09/27 02:53:30;;;;;;;;;11.00;9.33;;;;;;;;5088453;27;46096;-49
2023/09/27 02:55:55;;;;;;;;;9.67;9.67;;;;;;;;5088890;27;45481;-51
2023/09/27 02:58:21;;;;;;;;;12.00;10.00;;;;;;;;5093335;27;46254;-49
2023/09/27 03:00:48;;;;;;;;;8.67;8.33;;;;;;;;5084269;27;45963;-49
2023/09/27 03:03:13;;;;;;;;;10.00;9.33;;;;;;;;5075353;28;45438;-49
2023/09/27 03:05:39;;;;;;;;;9.00;9.00;;;;;;;;5094639;27;45402;-48
2023/09/27 03:08:04;;;;;;;;;10.67;9.67;;;;;;;;5079165;27;45706;-49
2023/09/27 03:10:29;;;;;;;;;11.33;8.67;;;;;;;;5088784;27;45489;-47
2023/09/27 03:12:55;;;;;;;;;14.67;10.33;;;;;;;;5094944;27;45223;-51
2023/09/27 03:15:21;;;;;;;;;10.33;10.33;;;;;;;;5083154;27;45302;-48
2023/09/27 03:17:47;;;;;;;;;12.33;9.67;;;;;;;;5079777;27;45465;-49
2023/09/27 03:20:19;;;;;;;;;10.00;9.67;;;;;;;;5078578;27;45440;-47
2023/09/27 03:22:47;;;;;;;;;10.00;8.33;;;;;;;;5076904;28;46973;-51
2023/09/27 03:25:12;;;;;;;;;13.33;10.00;;;;;;;;5074961;28;45416;-50
2023/09/27 03:27:38;;;;;;;;;7.00;6.67;;;;;;;;5081956;27;45405;-50
2023/09/27 03:30:04;;;;;;;;;11.00;10.67;;;;;;;;5084270;27;45488;-52
2023/09/27 03:32:29;;;;;;;;;13.00;10.33;;;;;;;;5062532;27;47020;-50
2023/09/27 03:34:56;;;;;;;;;4.33;4.00;;;;;;;;5078611;28;45711;-50
2023/09/27 03:37:21;;;;;;;;;10.67;10.67;;;;;;;;5077823;27;45514;-48
2023/09/27 03:39:46;;;;;;;;;14.00;9.33;;;;;;;;5067615;27;45517;-49
2023/09/27 03:42:12;;;;;;;;;11.00;10.00;;;;;;;;5079833;27;46228;-49
2023/09/27 03:44:38;;;;;;;;;11.00;11.00;;;;;;;;5087431;27;45443;-49
2023/09/27 03:47:03;;;;;;;;;11.67;11.00;;;;;;;;5089635;27;45364;-51
2023/09/27 03:49:29;;;;;;;;;10.33;10.00;;;;;;;;5076961;27;45380;-51
2023/09/27 03:51:54;;;;;;;;;9.00;9.00;;;;;;;;5088977;27;46018;-49
2023/09/27 03:54:19;;;;;;;;;12.00;10.00;;;;;;;;5080928;27;45742;-50
2023/09/27 03:56:46;;;;;;;;;11.00;10.00;;;;;;;;5088547;27;45863;-50
2023/09/27 03:59:13;;;;;;;;;11.33;10.33;;;;;;;;5077543;27;45603;-49
2023/09/27 04:01:38;;;;;;;;;12.67;12.00;;;;;;;;5084890;27;46195;-48
2023/09/27 04:04:04;;;;;;;;;14.33;11.00;;;;;;;;5080520;27;45491;-47
2023/09/27 04:06:30;;;;;;;;;14.00;10.67;;;;;;;;5082882;27;45449;-50
2023/09/27 04:08:55;;;;;;;;;12.00;10.00;;;;;;;;5082645;27;45365;-50
2023/09/27 04:11:20;;;;;;;;;13.00;11.33;;;;;;;;5083283;27;47123;-51
2023/09/27 04:13:45;;;;;;;;;12.00;10.00;;;;;;;;5090305;27;45390;-47
2023/09/27 04:16:12;;;;;;;;;13.33;11.33;;;;;;;;5081897;27;45533;-49
2023/09/27 04:18:37;;;;;;;;;15.33;10.67;;;;;;;;5085656;27;45495;-48
2023/09/27 04:21:07;;;;;;;;;13.00;13.00;;;;;;;;5078781;27;47900;-49
2023/09/27 04:23:33;;;;;;;;;15.33;15.33;;;;;;;;5080557;27;45459;-48
2023/09/27 04:25:58;;;;;;;;;14.00;12.00;;;;;;;;5080059;27;46070;-48
2023/09/27 04:28:23;;;;;;;;;17.67;12.33;;;;;;;;5079116;27;45268;-48
2023/09/27 04:30:48;;;;;;;;;12.00;12.00;;;;;;;;5080177;27;47194;-49
2023/09/27 04:33:15;;;;;;;;;16.67;14.67;;;;;;;;5076718;27;45435;-48
2023/09/27 04:35:40;;;;;;;;;16.67;13.33;;;;;;;;5082699;27;45436;-47
2023/09/27 04:38:05;;;;;;;;;18.67;13.33;;;;;;;;5077757;27;45470;-48
2023/09/27 04:40:31;;;;;;;;;15.00;15.00;;;;;;;;5079225;27;46915;-47
2023/09/27 04:42:56;;;;;;;;;13.33;13.00;;;;;;;;5084057;27;45337;-49
2023/09/27 04:45:22;;;;;;;;;13.67;13.67;;;;;;;;5090397;27;45299;-48
2023/09/27 04:47:47;;;;;;;;;17.00;15.33;;;;;;;;5079090;27;45499;-49
2023/09/27 04:50:12;;;;;;;;;13.33;12.33;;;;;;;;5084084;27;45987;-49
2023/09/27 04:52:38;;;;;;;;;15.67;15.00;;;;;;;;5078272;27;45395;-51
2023/09/27 04:55:04;;;;;;;;;18.00;16.67;;;;;;;;5080231;27;45464;-51
2023/09/27 04:57:29;;;;;;;;;18.00;17.00;;;;;;;;5083472;27;45663;-51
2023/09/27 04:59:54;;;;;;;;;19.33;16.33;;;;;;;;5080975;27;47196;-51
2023/09/27 05:02:20;;;;;;;;;21.00;16.00;;;;;;;;5084025;27;45547;-49
2023/09/27 05:04:47;;;;;;;;;16.00;16.00;;;;;;;;5080250;27;45228;-50
2023/09/27 05:07:12;;;;;;;;;16.00;16.00;;;;;;;;5066766;28;45255;-47
2023/09/27 05:09:37;;;;;;;;;15.00;13.00;;;;;;;;5061501;28;45207;-50
2023/09/27 05:12:03;;;;;;;;;18.00;18.00;;;;;;;;5062015;28;46044;-50
2023/09/27 05:14:28;;;;;;;;;15.33;13.67;;;;;;;;5073827;28;45361;-47
2023/09/27 05:16:53;;;;;;;;;16.67;16.33;;;;;;;;5068332;28;45255;-49
2023/09/27 05:19:19;;;;;;;;;17.67;16.67;;;;;;;;5078717;28;46180;-47
2023/09/27 05:21:44;;;;;;;;;16.67;16.00;;;;;;;;5065118;28;45593;-47
2023/09/27 05:24:09;;;;;;;;;18.33;16.67;;;;;;;;5072012;28;45566;-47
2023/09/27 05:26:34;;;;;;;;;19.67;17.67;;;;;;;;5078847;27;45606;-47
2023/09/27 05:29:02;;;;;;;;;21.00;18.00;;;;;;;;5078163;28;46114;-50
2023/09/27 05:31:28;;;;;;;;;13.67;13.67;;;;;;;;5079365;27;46680;-48
2023/09/27 05:33:53;;;;;;;;;15.00;14.33;;;;;;;;5079574;28;45418;-50
2023/09/27 05:36:18;;;;;;;;;18.00;15.00;;;;;;;;5085317;27;45300;-48
2023/09/27 05:38:44;;;;;;;;;17.00;16.67;;;;;;;;5080225;27;45762;-49
2023/09/27 05:41:09;;;;;;;;;19.00;18.00;;;;;;;;5076578;27;45278;-48
2023/09/27 05:43:35;;;;;;;;;17.33;17.00;;;;;;;;5072603;28;45593;-49
2023/09/27 05:46:00;;;;;;;;;14.00;11.33;;;;;;;;5066386;28;45208;-50
2023/09/27 05:48:26;;;;;;;;;16.00;15.67;;;;;;;;5074021;27;45482;-45
2023/09/27 05:50:51;;;;;;;;;22.00;15.33;;;;;;;;5075700;28;45480;-49
2023/09/27 05:53:17;;;;;;;;;18.33;16.00;;;;;;;;5074940;27;46828;-46
2023/09/27 05:55:43;;;;;;;;;18.00;15.00;;;;;;;;5079478;27;45460;-49
2023/09/27 05:58:08;;;;;;;;;16.33;16.33;;;;;;;;5079392;27;46042;-51
2023/09/27 06:00:37;;;;;;;;;17.67;16.00;;;;;;;;5069128;27;45352;-47
2023/09/27 06:03:04;;;;;;;;;16.67;16.33;;;;;;;;5079393;27;45459;-48
2023/09/27 06:05:29;;;;;;;;;21.00;16.67;;;;;;;;5072588;27;45879;-50
2023/09/27 06:07:54;;;;;;;;;16.00;15.00;;;;;;;;5073817;27;46103;-52
2023/09/27 06:10:19;;;;;;;;;21.67;16.67;;;;;;;;5079105;27;45404;-51
2023/09/27 06:12:45;;;;;;;;;17.00;15.00;;;;;;;;5077851;27;45321;-51
2023/09/27 06:15:10;;;;;;;;;15.67;14.67;;;;;;;;5076467;27;45340;-49
2023/09/27 06:17:36;;;;;;;;;21.00;16.67;;;;;;;;5077180;27;46685;-49
2023/09/27 06:20:05;;;;;;;;;16.00;15.00;;;;;;;;5078216;27;45637;-49
2023/09/27 06:22:30;;;;;;;;;19.00;17.00;;;;;;;;5073857;28;45469;-60
2023/09/27 06:24:56;;;;;;;;;17.33;16.00;;;;;;;;5077198;27;45386;-60
2023/09/27 06:27:22;;;;;;;;;16.67;14.33;;;;;;;;5076203;28;46331;-60
2023/09/27 06:29:47;;;;;;;;;25.33;21.67;;;;;;;;5079620;27;45458;-60
2023/09/27 06:32:12;;;;;;;;;20.33;19.33;;;;;;;;5069546;28;45515;-60
2023/09/27 06:34:37;;;;;;;;;20.33;16.00;;;;;;;;5076945;28;45462;-60
2023/09/27 06:37:02;;;;;;;;;20.67;18.00;;;;;;;;5073175;27;46163;-60
2023/09/27 06:39:27;;;;;;;;;25.00;22.67;;;;;;;;5079043;27;45328;-60
2023/09/27 06:41:53;;;;;;;;;22.33;20.33;;;;;;;;5078238;28;45450;-60
2023/09/27 06:44:18;;;;;;;;;20.33;19.33;;;;;;;;5079622;27;45443;-60
2023/09/27 06:46:44;;;;;;;;;18.67;17.33;;;;;;;;5078766;28;46964;-60
2023/09/27 06:49:09;;;;;;;;;18.00;18.00;;;;;;;;5079046;28;45689;-61
2023/09/27 06:51:34;;;;;;;;;22.67;18.33;;;;;;;;5076576;28;45406;-62
2023/09/27 06:54:00;;;;;;;;;19.67;18.33;;;;;;;;5072619;28;45512;-60
2023/09/27 06:56:25;;;;;;;;;20.00;19.00;;;;;;;;5070772;28;46265;-60
2023/09/27 06:58:51;;;;;;;;;21.00;18.00;;;;;;;;5074800;28;45529;-60
2023/09/27 07:01:16;;;;;;;;;20.67;18.00;;;;;;;;5072242;28;45586;-60
2023/09/27 07:03:42;;;;;;;;;19.33;18.00;;;;;;;;5069724;28;45398;-60
2023/09/27 07:06:07;;;;;;;;;26.00;20.67;;;;;;;;5072895;27;45957;-61
2023/09/27 07:08:33;;;;;;;;;21.67;18.33;;;;;;;;5075482;28;45499;-60
2023/09/27 07:11:05;;;;;;;;;20.33;18.33;;;;;;;;5072043;28;45477;-61
2023/09/27 07:13:30;;;;;;;;;22.33;19.33;;;;;;;;5076371;28;45580;-61
2023/09/27 07:15:56;;;;;;;;;23.67;20.33;;;;;;;;5075592;27;46145;-61
2023/09/27 07:18:22;;;;;;;;;21.33;21.33;;;;;;;;5075361;28;45342;-61
2023/09/27 07:20:50;;;;;;;;;23.33;22.00;;;;;;;;5065070;28;45497;-61
2023/09/27 07:23:15;;;;;;;;;26.67;24.67;;;;;;;;5070616;28;45487;-59
2023/09/27 07:25:44;;;;;;;;;23.33;22.67;;;;;;;;5066804;28;46026;-61
2023/09/27 07:28:10;;;;;;;;;26.00;22.00;;;;;;;;5075804;28;45484;-61
2023/09/27 07:30:35;;;;;;;;;24.33;22.33;;;;;;;;5077353;28;45719;-60
2023/09/27 07:33:06;;;;;;;;;25.00;22.00;;;;;;;;5080453;27;45248;-60
2023/09/27 07:35:33;;;;;;;;;28.33;21.00;;;;;;;;5084905;27;45487;-60
2023/09/27 07:37:59;;;;;;;;;23.00;20.67;;;;;;;;5079793;27;45484;-61
2023/09/27 07:40:24;;;;;;;;;24.00;22.00;;;;;;;;5078784;27;45767;-60
2023/09/27 07:42:51;;;;;;;;;28.00;23.33;;;;;;;;5077760;27;45361;-61
2023/09/27 07:45:22;;;;;;;;;24.33;24.33;;;;;;;;5077973;27;46858;-61
2023/09/27 07:47:53;;;;;;;;;22.33;18.67;;;;;;;;5078693;27;45462;-60
2023/09/27 07:50:22;;;;;;;;;27.33;21.33;;;;;;;;5069302;27;45783;-60
2023/09/27 07:52:47;;;;;;;;;25.67;20.00;;;;;;;;5077478;27;45315;-60
2023/09/27 07:55:14;;;;;;;;;21.67;20.00;;;;;;;;5090590;27;46961;-61
2023/09/27 07:57:42;;;;;;;;;19.67;18.00;;;;;;;;5079822;27;45941;-60
2023/09/27 08:00:10;;;;;;;;;24.00;17.67;;;;;;;;5082681;27;45307;-60
2023/09/27 08:02:36;;;;;;;;;19.00;18.33;;;;;;;;5082373;27;45587;-61
2023/09/27 08:05:09;;;;;;;;;19.67;19.00;;;;;;;;5088688;27;46125;-61
2023/09/27 08:07:38;;;;;;;;;19.67;18.00;;;;;;;;5084226;27;45487;-60
2023/09/27 08:10:04;;;;;;;;;20.33;18.00;;;;;;;;5087492;27;45548;-60
2023/09/27 08:12:31;;;;;;;;;22.33;18.67;;;;;;;;5084450;27;45482;-60
2023/09/27 08:14:57;;;;;;;;;20.00;20.00;;;;;;;;5085595;27;45638;-60
2023/09/27 08:17:22;;;;;;;;;21.67;18.67;;;;;;;;5084308;27;45279;-61
2023/09/27 08:19:47;;;;;;;;;22.00;21.67;;;;;;;;5090923;27;45340;-60
2023/09/27 08:22:12;;;;;;;;;20.67;17.00;;;;;;;;5076377;27;45372;-60
2023/09/27 08:24:38;;;;;;;;;24.33;20.33;;;;;;;;5078195;27;46156;-60
2023/09/27 08:27:03;;;;;;;;;33.67;32.67;;;;;;;;5078082;28;45270;-60
2023/09/27 08:29:28;;;;;;;;;20.33;19.33;;;;;;;;5078095;28;45318;-61
2023/09/27 08:31:53;;;;;;;;;16.00;15.00;;;;;;;;5077691;28;45665;-60
2023/09/27 08:34:18;;;;;;;;;19.00;18.00;;;;;;;;5076570;28;45480;-60
2023/09/27 08:36:44;;;;;;;;;22.00;21.67;;;;;;;;5077207;27;45357;-60
2023/09/27 08:39:09;;;;;;;;;20.00;16.00;;;;;;;;5075781;28;45524;-60
2023/09/27 08:41:35;;;;;;;;;25.00;23.00;;;;;;;;5076555;27;45640;-60
2023/09/27 08:44:01;;;;;;;;;22.33;20.67;;;;;;;;5074233;28;45481;-60
2023/09/27 08:46:29;;;;;;;;;11.00;9.00;;;;;;;;5076311;28;45510;-61
2023/09/27 08:48:57;;;;;;;;;23.33;23.33;;;;;;;;5068529;28;45464;-61
2023/09/27 08:51:23;;;;;;;;;21.33;19.67;;;;;;;;5073279;28;45464;-60
2023/09/27 08:53:48;;;;;;;;;23.33;19.00;;;;;;;;5071956;28;46074;-60
2023/09/27 08:56:16;;;;;;;;;25.33;25.33;;;;;;;;5075711;28;45530;-60
2023/09/27 08:58:43;;;;;;;;;21.00;18.00;;;;;;;;5077435;27;45225;-60
2023/09/27 09:01:09;;;;;;;;;16.33;15.00;;;;;;;;5073273;27;45559;-65
2023/09/27 09:03:36;;;;;;;;;16.00;14.00;;;;;;;;5068676;28;45835;-62
2023/09/27 09:06:01;;;;;;;;;17.00;14.33;;;;;;;;5079429;28;45374;-61
2023/09/27 09:08:26;;;;;;;;;14.67;13.00;;;;;;;;5079235;28;45548;-62
2023/09/27 09:10:53;;;;;;;;;13.00;13.00;;;;;;;;5079210;28;46433;-61
2023/09/27 09:13:21;;;;;;;;;12.67;12.67;;;;;;;;5076584;28;46935;-61
2023/09/27 09:15:48;;;;;;;;;12.00;12.00;;;;;;;;5080352;27;45448;-61
2023/09/27 09:18:28;;;;;;;;;13.00;11.00;;;;;;;;5079441;28;45487;-61
2023/09/27 09:20:59;;;;;;;;;13.67;12.00;;;;;;;;5072836;28;45520;-62
2023/09/27 09:23:33;;;;;;;;;13.67;11.67;;;;;;;;5063304;28;45722;-61
2023/09/27 09:25:58;;;;;;;;;14.67;14.00;;;;;;;;5071309;28;45299;-61
2023/09/27 09:28:27;;;;;;;;;14.67;13.33;;;;;;;;5071426;28;45935;-62
2023/09/27 09:30:54;;;;;;;;;5.33;5.33;;;;;;;;5077758;28;45559;-62
2023/09/27 09:33:24;;;;;;;;;7.75;7.75;;;;;;;;5073945;28;47246;-62
2023/09/27 09:35:51;;;;;;;;;11.00;10.00;;;;;;;;5074542;27;45543;-61
2023/09/27 09:38:26;;;;;;;;;8.50;8.50;;;;;;;;5069007;28;45483;-61
2023/09/27 09:40:57;;;;;;;;;11.67;10.00;;;;;;;;5073680;28;45408;-62
2023/09/27 09:43:29;;;;;;;;;11.00;9.25;;;;;;;;5077183;28;45585;-62
2023/09/27 09:45:54;;;;;;;;;9.50;9.50;;;;;;;;5076672;28;45642;-62
2023/09/27 09:48:19;;;;;;;;;10.00;8.75;;;;;;;;5068976;28;45384;-61
2023/09/27 09:50:45;;;;;;;;;10.00;8.25;;;;;;;;5069676;28;45236;-62
2023/09/27 09:53:11;;;;;;;;;9.75;9.00;;;;;;;;5069423;28;46240;-62
2023/09/27 09:55:36;;;;;;;;;7.25;7.25;;;;;;;;5074105;28;45482;-62
2023/09/27 09:58:01;;;;;;;;;10.50;9.25;;;;;;;;5078464;28;45555;-62
2023/09/27 10:00:27;;;;;;;;;6.60;6.60;;;;;;;;5072201;28;45295;-62
2023/09/27 10:02:59;;;;;;;;;12.00;9.75;;;;;;;;5075026;27;46318;-61
2023/09/27 10:05:25;;;;;;;;;9.75;8.75;;;;;;;;5075829;28;45398;-61
2023/09/27 10:07:51;;;;;;;;;7.75;7.75;;;;;;;;5073707;28;45483;-62
2023/09/27 10:10:19;;;;;;;;;8.00;6.50;;;;;;;;5072563;28;45853;-62
2023/09/27 10:12:50;;;;;;;;;10.00;8.00;;;;;;;;5076123;28;46265;-61
2023/09/27 10:15:18;;;;;;;;;8.50;8.25;;;;;;;;5067848;28;45407;-62
2023/09/27 10:17:43;;;;;;;;;9.00;7.75;;;;;;;;5072717;28;45619;-61
2023/09/27 10:20:12;;;;;;;;;5.75;5.00;;;;;;;;5071239;28;45280;-61
2023/09/27 10:22:41;;;;;;;;;7.50;7.50;;;;;;;;5072508;28;46373;-65
2023/09/27 10:25:28;;;;;;;;;4.50;4.50;;;;;;;;5067862;28;45402;-65
2023/09/27 10:28:04;;;;;;;;;5.75;5.75;;;;;;;;5072494;27;45579;-74
2023/09/27 10:30:41;;;;;;;;;7.00;5.00;;;;;;;;5064535;27;45515;-69
2023/09/27 10:33:15;;;;;;;;;8.00;8.00;;;;;;;;5077510;28;45521;-68
2023/09/27 10:35:46;;;;;;;;;5.00;5.00;;;;;;;;5074393;28;45872;-68
2023/09/27 10:38:12;;;;;;;;;8.75;7.75;;;;;;;;5078180;27;45474;-68
2023/09/27 10:40:44;;;;;;;;;6.50;6.50;;;;;;;;5078895;28;45599;-68
2023/09/27 10:43:29;;;;;;;;;8.00;6.75;;;;;;;;5076419;28;46286;-68
2023/09/27 10:45:55;;;;;;;;;5.00;4.00;;;;;;;;5072604;28;45434;-68
2023/09/27 10:48:21;;;;;;;;;5.75;5.75;;;;;;;;5077277;28;45591;-68
2023/09/27 10:50:51;;;;;;;;;8.00;6.75;;;;;;;;5077362;27;45524;-68
2023/09/27 10:53:16;;;;;;;;;6.75;6.75;;;;;;;;5077664;28;45535;-68
2023/09/27 10:55:42;;;;;;;;;6.25;5.25;;;;;;;;5077418;28;45627;-68
2023/09/27 10:58:11;;;;;;;;;8.25;5.50;;;;;;;;5078066;28;45413;-68
2023/09/27 11:00:48;;;;;;;;;5.75;5.75;;;;;;;;5075451;28;45501;-68
2023/09/27 11:03:17;;;;;;;;;6.00;6.00;;;;;;;;5074264;28;45337;-68
2023/09/27 11:05:42;;;;;;;;;6.75;6.75;;;;;;;;5076431;28;45521;-68
2023/09/27 11:08:07;;;;;;;;;5.75;5.75;;;;;;;;5077483;27;45416;-68
2023/09/27 11:10:33;;;;;;;;;7.25;4.25;;;;;;;;5075763;28;45213;-68
2023/09/27 11:13:09;;;;;;;;;6.75;6.75;;;;;;;;5076724;27;46014;-69
2023/09/27 11:15:35;;;;;;;;;6.50;5.25;;;;;;;;5075887;28;45739;-68
2023/09/27 11:18:00;;;;;;;;;7.50;7.25;;;;;;;;5074628;28;45460;-69
2023/09/27 11:20:25;;;;;;;;;5.75;5.75;;;;;;;;5072582;28;45429;-69
2023/09/27 11:22:58;;;;;;;;;4.75;3.75;;;;;;;;5077836;28;46650;-68
2023/09/27 11:25:30;;;;;;;;;6.00;4.75;;;;;;;;5070577;28;45400;-69
2023/09/27 11:27:55;;;;;;;;;4.75;3.00;;;;;;;;5066599;28;45443;-69
2023/09/27 11:30:30;;;;;;;;;10.00;6.25;;;;;;;;5067653;28;45963;-68
2023/09/27 11:32:56;;;;;;;;;5.50;5.50;;;;;;;;5072203;28;47268;-69
2023/09/27 11:35:24;;;;;;;;;3.75;3.75;;;;;;;;5072060;28;45395;-68
2023/09/27 11:37:49;;;;;;;;;8.25;6.75;;;;;;;;5071555;27;45420;-68
2023/09/27 11:40:14;;;;;;;;;5.75;5.50;;;;;;;;5071757;28;45246;-68
2023/09/27 11:42:40;;;;;;;;;5.00;4.75;;;;;;;;5073074;28;46016;-68
2023/09/27 11:45:08;;;;;;;;;7.00;5.00;;;;;;;;5071084;28;45492;-69
2023/09/27 11:47:53;;;;;;;;;4.75;4.75;;;;;;;;5068634;28;45622;-69
2023/09/27 11:50:19;;;;;;;;;7.00;6.50;;;;;;;;5063611;28;45331;-68
2023/09/27 11:52:48;;;;;;;;;7.50;7.50;;;;;;;;5070773;28;47007;-61
2023/09/27 11:55:14;;;;;;;;;8.00;8.00;;;;;;;;5072269;28;45287;-61
2023/09/27 11:57:39;;;;;;;;;8.67;7.67;;;;;;;;5077120;28;45326;-61
2023/09/27 12:00:15;;;;;;;;;7.25;6.25;;;;;;;;5075780;28;45599;-61
2023/09/27 12:02:43;;;;;;;;;7.33;4.33;;;;;;;;5078793;28;46308;-61
2023/09/27 12:05:09;;;;;;;;;7.00;5.75;;;;;;;;5076202;28;45376;-60
2023/09/27 12:07:34;;;;;;;;;6.00;6.00;;;;;;;;5077279;28;45480;-66
2023/09/27 12:10:00;;;;;;;;;1.00;1.00;;;;;;;;5075281;27;45692;-66
2023/09/27 12:12:27;;;;;;;;;6.25;6.00;;;;;;;;5074172;27;46486;-66
2023/09/27 12:14:52;;;;;;;;;5.67;5.67;;;;;;;;5075583;28;45332;-67
2023/09/27 12:17:17;;;;;;;;;5.00;5.00;;;;;;;;5077420;27;45431;-66
2023/09/27 12:19:43;;;;;;;;;7.00;5.50;;;;;;;;5070332;27;46608;-67
2023/09/27 12:22:11;;;;;;;;;6.25;5.00;;;;;;;;5077635;27;45559;-66
2023/09/27 12:24:36;;;;;;;;;3.75;3.75;;;;;;;;5072268;28;45465;-66
2023/09/27 12:27:01;;;;;;;;;6.00;6.00;;;;;;;;5074114;28;45306;-66
2023/09/27 12:29:27;;;;;;;;;5.50;5.50;;;;;;;;5077436;27;45435;-67
2023/09/27 12:31:52;;;;;;;;;5.33;4.33;;;;;;;;5077974;27;45418;-66
2023/09/27 12:34:18;;;;;;;;;4.25;4.00;;;;;;;;5075391;28;45526;-67
2023/09/27 12:36:44;;;;;;;;;6.50;4.75;;;;;;;;5073066;27;45753;-67
2023/09/27 12:39:10;;;;;;;;;5.50;5.50;;;;;;;;5070299;28;45899;-68
2023/09/27 12:41:35;;;;;;;;;4.75;4.75;;;;;;;;5075894;27;46013;-67
2023/09/27 12:44:00;;;;;;;;;4.25;4.25;;;;;;;;5079771;28;45298;-67
2023/09/27 12:46:25;;;;;;;;;5.00;5.00;;;;;;;;5079745;28;45574;-68
2023/09/27 12:48:51;;;;;;;;;5.25;5.25;;;;;;;;5072083;27;45431;-66
2023/09/27 12:51:16;;;;;;;;;4.50;4.50;;;;;;;;5077433;28;46039;-64
2023/09/27 12:53:41;;;;;;;;;4.00;4.00;;;;;;;;5076075;28;45797;-68
2023/09/27 12:56:07;;;;;;;;;4.25;4.00;;;;;;;;5076612;27;45254;-68
2023/09/27 12:58:32;;;;;;;;;6.75;4.75;;;;;;;;5070805;28;45661;-68
2023/09/27 13:00:57;;;;;;;;;3.75;3.75;;;;;;;;5078500;28;45624;-69
2023/09/27 13:03:22;;;;;;;;;5.75;4.50;;;;;;;;5072764;27;45749;-64
2023/09/27 13:05:48;;;;;;;;;3.00;3.00;;;;;;;;5072040;27;45481;-57
2023/09/27 13:08:13;;;;;;;;;4.50;3.25;;;;;;;;5074098;27;45624;-64
2023/09/27 13:10:38;;;;;;;;;4.75;4.00;;;;;;;;5077375;27;46847;-65
2023/09/27 13:13:04;;;;;;;;;6.75;5.00;;;;;;;;5063207;28;45551;-61
2023/09/27 13:15:29;;;;;;;;;4.75;4.75;;;;;;;;5072916;28;45549;-61
2023/09/27 13:17:54;;;;;;;;;3.25;2.75;;;;;;;;5079512;27;45384;-61
2023/09/27 13:20:19;;;;;;;;;3.25;3.00;;;;;;;;5076346;27;45256;-61
2023/09/27 13:22:44;;;;;;;;;5.75;4.75;;;;;;;;5077538;28;45317;-61
2023/09/27 13:25:13;;;;;;;;;7.50;4.75;;;;;;;;5075675;28;45534;-61
2023/09/27 13:27:39;;;;;;;;;4.50;3.50;;;;;;;;5081816;27;45463;-61
2023/09/27 13:30:06;;;;;;;;;3.25;3.25;;;;;;;;5076707;27;45359;-61
2023/09/27 13:32:31;;;;;;;;;5.75;5.00;;;;;;;;5073672;27;45511;-60
2023/09/27 13:34:56;;;;;;;;;4.00;4.00;;;;;;;;5074941;27;45358;-61
2023/09/27 13:37:22;;;;;;;;;6.00;4.75;;;;;;;;5078823;27;45326;-57
2023/09/27 13:39:47;;;;;;;;;3.50;3.25;;;;;;;;5078820;28;45436;-55
2023/09/27 13:42:12;;;;;;;;;6.25;4.25;;;;;;;;5075556;28;45580;-55
2023/09/27 13:44:37;;;;;;;;;4.25;4.25;;;;;;;;5078033;28;45456;-51
2023/09/27 13:47:03;;;;;;;;;4.00;4.00;;;;;;;;5074647;28;45606;-51
2023/09/27 13:49:29;;;;;;;;;5.75;3.75;;;;;;;;5076136;28;45336;-58
2023/09/27 13:51:54;;;;;;;;;4.00;4.00;;;;;;;;5073026;27;45308;-54
2023/09/27 13:54:19;;;;;;;;;5.50;3.75;;;;;;;;5073612;27;45297;-55
2023/09/27 13:56:45;;;;;;;;;3.50;3.00;;;;;;;;5075764;28;45536;-57
2023/09/27 13:59:10;;;;;;;;;4.00;4.00;;;;;;;;5077034;28;46997;-60
2023/09/27 14:01:35;;;;;;;;;5.00;5.00;;;;;;;;5077741;28;45508;-58
2023/09/27 14:04:01;;;;;;;;;4.75;4.75;;;;;;;;5078797;28;45480;-54
2023/09/27 14:06:26;;;;;;;;;3.25;3.25;;;;;;;;5076567;27;45735;-53
2023/09/27 14:08:51;;;;;;;;;5.00;3.00;;;;;;;;5072634;28;45522;-58
2023/09/27 14:11:17;;;;;;;;;3.00;3.00;;;;;;;;5076220;28;45526;-55
2023/09/27 14:13:43;;;;;;;;;3.00;3.00;;;;;;;;5069554;28;45395;-51
2023/09/27 14:16:09;;;;;;;;;3.00;3.00;;;;;;;;5065767;28;46034;-57
2023/09/27 14:18:34;;;;;;;;;2.25;2.25;;;;;;;;5075697;27;45760;-51
2023/09/27 14:20:59;;;;;;;;;2.00;2.00;;;;;;;;5075608;28;46546;-55